Aureola, Iowa
Current Conditions -  °F | °C
As of 12:15 PM on Thursday 23 Oct 2014 (Local Time) from KCCY Reporting Station
Haze Haze  
Wind Chill: 50°   Ceiling: 400
Heat Index: 50°   Visibility: 3mi
Dew Point: 50°   Wind: 7mph
Humidity: 100%   Direction: 170°S
Pressure: 30.05"   Gusts: NA
Location:  42.9618°N, 92.9184°W
Report Text: KCCY 231715Z AUTO 17006KT 3SM BR OVC004 10/10 A3005 RMK AO2
Loading
Personal Weather Stations






























Interactive Weather Map New forecast layout! Learn more

10-Day Weather Forecast

Advertisements
Track Severe Weather on mobile